Celestyal Nefeli — C6AY8 — position and weather

sailwx.info

Track history (hours):
 
Tides and Currents Weather Stations Pressure Air Temp Water Temp Dewpoint Dewpoint Depression Visibility Wind Speed Wind Dir Waves Ship Positions

Celestyal Nefeli

Last reported at 2017-Sep-21 22:59 UTC. Time now 2017-Sep-21 23:18 UTC.
Position N 37°28' E 025°19'.

Length 164 m; draft 5.6 m.

Type: Passenger vessel. MMSI: 311000160.

Date/timePositionNaut miles runAvg speedWind from/ knotsBaromVisibWave heightAir tempDewpointWater temp
2017-Sep-21 22:59N 37°28' E 025°19'0 0.0
2017-Sep-21 22:29N 37°28' E 025°19'0 0.0
2017-Sep-21 21:59N 37°28' E 025°19'0 0.0
2017-Sep-21 21:29N 37°28' E 025°19'0 0.0
2017-Sep-21 20:59N 37°28' E 025°19'0 0.0
2017-Sep-21 20:29N 37°28' E 025°19'0 0.0
2017-Sep-21 19:59N 37°28' E 025°19'0 0.0
2017-Sep-21 19:29N 37°28' E 025°19'0 0.0
2017-Sep-21 18:59N 37°28' E 025°19'0 0.0
2017-Sep-21 18:29N 37°28' E 025°19'0 0.0
2017-Sep-21 17:56N 37°28' E 025°19'0 0.0
2017-Sep-21 17:29N 37°28' E 025°19'0 0.0
2017-Sep-21 16:59N 37°28' E 025°19'0 0.0
2017-Sep-21 16:29N 37°28' E 025°19'0 0.0
2017-Sep-21 15:56N 37°28' E 025°19'0 0.0
2017-Sep-21 15:30N 37°28' E 025°19'3 5.5
2017-Sep-21 15:00N 37°31' E 025°18'815.5
2017-Sep-21 14:30N 37°36' E 025°26'714.9
2017-Sep-21 14:00N 37°41' E 025°33'715.0
2017-Sep-21 13:30N 37°45' E 025°40'118 2.8
2017-Sep-19 18:56N 35°48' E 025°17'2616.2
2017-Sep-19 17:20N 35°39' E 024°47'516.2
2017-Sep-19 17:01N 35°38' E 024°41'816.0
2017-Sep-19 16:30N 35°35' E 024°32'815.9
2017-Sep-19 16:01N 35°32' E 024°23'7 0.6
2017-Sep-19 03:39N 35°35' E 024°14'3813.3
2017-Sep-19 00:50N 36°08' E 023°51'412.9
2017-Sep-19 00:30N 36°11' E 023°48'2313.9
2017-Sep-18 22:53N 36°31' E 023°35'616.8
2017-Sep-18 22:30N 36°36' E 023°31'916.5
2017-Sep-18 21:59N 36°44' E 023°26'916.3
2017-Sep-18 21:26N 36°52' E 023°20'716.2
2017-Sep-18 20:58N 36°58' E 023°16'3516.3
2017-Sep-18 18:51N 37°27' E 022°51'2 0.1
2017-Sep-18 05:02N 37°28' E 022°52'2313.0
2017-Sep-18 03:18N 37°10' E 023°09'1613.4
2017-Sep-18 02:06N 37°17' E 023°28'313.1
2017-Sep-18 01:53N 37°18' E 023°31'513.0
2017-Sep-18 01:30N 37°20' E 023°37'612.8
2017-Sep-18 01:00N 37°22' E 023°44'612.8
2017-Sep-18 00:30N 37°24' E 023°52'713.7
2017-Sep-18 00:01N 37°27' E 023°60'1216.0
2017-Sep-17 23:14N 37°36' E 024°10'915.4
2017-Sep-17 22:38N 37°43' E 024°19'2815.4
2017-Sep-17 20:48N 38°02' E 024°45'716.0
2017-Sep-17 20:22N 38°06' E 024°53'816.0
2017-Sep-17 19:51N 38°10' E 025°01'1816.0
2017-Sep-17 18:41N 38°21' E 025°20'45 2.0
2017-Sep-16 20:56N 37°41' E 025°45'1615.8
2017-Sep-16 19:55N 37°25' E 025°45'615.6
2017-Sep-16 19:31N 37°18' E 025°45'815.4
2017-Sep-16 19:00N 37°11' E 025°45'53 1.3
2017-Sep-15 02:44N 37°31' E 024°44'311.8
2017-Sep-15 02:30N 37°32' E 024°47'711.9
2017-Sep-15 01:57N 37°32' E 024°55'511.9
2017-Sep-15 01:29N 37°31' E 025°02'611.9
2017-Sep-15 01:00N 37°29' E 025°09'612.0
2017-Sep-15 00:30N 37°28' E 025°17'2 4.7
2017-Sep-15 00:00N 37°28' E 025°20'0 0.0
2017-Sep-14 23:30N 37°28' E 025°20'0 0.0
2017-Sep-14 23:00N 37°28' E 025°20'0 0.0
2017-Sep-14 22:27N 37°28' E 025°20'0 0.0
2017-Sep-14 22:00N 37°28' E 025°20'0 0.0
2017-Sep-14 21:30N 37°28' E 025°20'0 0.0
2017-Sep-14 21:00N 37°28' E 025°20'0 0.0
2017-Sep-14 20:30N 37°28' E 025°20'0 0.0
2017-Sep-14 20:00N 37°28' E 025°20'0 0.0
2017-Sep-14 19:30N 37°28' E 025°20'0 0.0
2017-Sep-14 19:00N 37°28' E 025°20'0 0.0
2017-Sep-14 18:30N 37°28' E 025°20'0 0.0
2017-Sep-14 17:57N 37°28' E 025°20'0 0.0
2017-Sep-14 17:24N 37°28' E 025°20'0 0.0
2017-Sep-14 17:00N 37°28' E 025°20'0 0.0
2017-Sep-14 16:30N 37°28' E 025°20'0 0.0
2017-Sep-14 16:00N 37°28' E 025°20'0 0.5
2017-Sep-14 15:30N 37°28' E 025°19'4 8.0
2017-Sep-14 14:58N 37°32' E 025°20'715.9
2017-Sep-14 14:30N 37°37' E 025°27'815.8
2017-Sep-14 14:00N 37°42' E 025°34'815.1
2017-Sep-14 13:30N 37°48' E 025°41'144 3.2
2017-Sep-12 16:28N 35°35' E 024°31'716.2
2017-Sep-12 16:00N 35°32' E 024°23'  
Track history (hours):
 
Tides and Currents Weather Stations Pressure Air Temp Water Temp Dewpoint Dewpoint Depression Visibility Wind Speed Wind Dir Waves Ship Positions

Celestyal Nefeli

Last reported at 2017-Sep-21 22:59 UTC. Time now 2017-Sep-21 23:18 UTC.
Position N 37°28' E 025°19'.

Length 164 m; draft 5.6 m.

Type: Passenger vessel. MMSI: 311000160.

Date/timePositionNaut miles runAvg speedWind from/ knotsBaromVisibWave heightAir tempDewpointWater temp
2017-Sep-21 22:59N 37°28' E 025°19'0 0.0
2017-Sep-21 22:29N 37°28' E 025°19'0 0.0
2017-Sep-21 21:59N 37°28' E 025°19'0 0.0
2017-Sep-21 21:29N 37°28' E 025°19'0 0.0
2017-Sep-21 20:59N 37°28' E 025°19'0 0.0
2017-Sep-21 20:29N 37°28' E 025°19'0 0.0
2017-Sep-21 19:59N 37°28' E 025°19'0 0.0
2017-Sep-21 19:29N 37°28' E 025°19'0 0.0
2017-Sep-21 18:59N 37°28' E 025°19'0 0.0
2017-Sep-21 18:29N 37°28' E 025°19'0 0.0
2017-Sep-21 17:56N 37°28' E 025°19'0 0.0
2017-Sep-21 17:29N 37°28' E 025°19'0 0.0
2017-Sep-21 16:59N 37°28' E 025°19'0 0.0
2017-Sep-21 16:29N 37°28' E 025°19'0 0.0
2017-Sep-21 15:56N 37°28' E 025°19'0 0.0
2017-Sep-21 15:30N 37°28' E 025°19'3 5.5
2017-Sep-21 15:00N 37°31' E 025°18'815.5
2017-Sep-21 14:30N 37°36' E 025°26'714.9
2017-Sep-21 14:00N 37°41' E 025°33'715.0
2017-Sep-21 13:30N 37°45' E 025°40'118 2.8
2017-Sep-19 18:56N 35°48' E 025°17'2616.2
2017-Sep-19 17:20N 35°39' E 024°47'516.2
2017-Sep-19 17:01N 35°38' E 024°41'816.0
2017-Sep-19 16:30N 35°35' E 024°32'815.9
2017-Sep-19 16:01N 35°32' E 024°23'7 0.6
2017-Sep-19 03:39N 35°35' E 024°14'3813.3
2017-Sep-19 00:50N 36°08' E 023°51'412.9
2017-Sep-19 00:30N 36°11' E 023°48'2313.9
2017-Sep-18 22:53N 36°31' E 023°35'616.8
2017-Sep-18 22:30N 36°36' E 023°31'916.5
2017-Sep-18 21:59N 36°44' E 023°26'916.3
2017-Sep-18 21:26N 36°52' E 023°20'716.2
2017-Sep-18 20:58N 36°58' E 023°16'3516.3
2017-Sep-18 18:51N 37°27' E 022°51'2 0.1
2017-Sep-18 05:02N 37°28' E 022°52'2313.0
2017-Sep-18 03:18N 37°10' E 023°09'1613.4
2017-Sep-18 02:06N 37°17' E 023°28'313.1
2017-Sep-18 01:53N 37°18' E 023°31'513.0
2017-Sep-18 01:30N 37°20' E 023°37'612.8
2017-Sep-18 01:00N 37°22' E 023°44'612.8
2017-Sep-18 00:30N 37°24' E 023°52'713.7
2017-Sep-18 00:01N 37°27' E 023°60'1216.0
2017-Sep-17 23:14N 37°36' E 024°10'915.4
2017-Sep-17 22:38N 37°43' E 024°19'2815.4
2017-Sep-17 20:48N 38°02' E 024°45'716.0
2017-Sep-17 20:22N 38°06' E 024°53'816.0
2017-Sep-17 19:51N 38°10' E 025°01'1816.0
2017-Sep-17 18:41N 38°21' E 025°20'45 2.0
2017-Sep-16 20:56N 37°41' E 025°45'1615.8
2017-Sep-16 19:55N 37°25' E 025°45'615.6
2017-Sep-16 19:31N 37°18' E 025°45'815.4
2017-Sep-16 19:00N 37°11' E 025°45'53 1.3
2017-Sep-15 02:44N 37°31' E 024°44'311.8
2017-Sep-15 02:30N 37°32' E 024°47'711.9
2017-Sep-15 01:57N 37°32' E 024°55'511.9
2017-Sep-15 01:29N 37°31' E 025°02'611.9
2017-Sep-15 01:00N 37°29' E 025°09'612.0
2017-Sep-15 00:30N 37°28' E 025°17'2 4.7
2017-Sep-15 00:00N 37°28' E 025°20'0 0.0
2017-Sep-14 23:30N 37°28' E 025°20'0 0.0
2017-Sep-14 23:00N 37°28' E 025°20'0 0.0
2017-Sep-14 22:27N 37°28' E 025°20'0 0.0
2017-Sep-14 22:00N 37°28' E 025°20'0 0.0
2017-Sep-14 21:30N 37°28' E 025°20'0 0.0
2017-Sep-14 21:00N 37°28' E 025°20'0 0.0
2017-Sep-14 20:30N 37°28' E 025°20'0 0.0
2017-Sep-14 20:00N 37°28' E 025°20'0 0.0
2017-Sep-14 19:30N 37°28' E 025°20'0 0.0
2017-Sep-14 19:00N 37°28' E 025°20'0 0.0
2017-Sep-14 18:30N 37°28' E 025°20'0 0.0
2017-Sep-14 17:57N 37°28' E 025°20'0 0.0
2017-Sep-14 17:24N 37°28' E 025°20'0 0.0
2017-Sep-14 17:00N 37°28' E 025°20'0 0.0
2017-Sep-14 16:30N 37°28' E 025°20'0 0.0
2017-Sep-14 16:00N 37°28' E 025°20'0 0.5
2017-Sep-14 15:30N 37°28' E 025°19'4 8.0
2017-Sep-14 14:58N 37°32' E 025°20'715.9
2017-Sep-14 14:30N 37°37' E 025°27'815.8
2017-Sep-14 14:00N 37°42' E 025°34'815.1
2017-Sep-14 13:30N 37°48' E 025°41'144 3.2
2017-Sep-12 16:28N 35°35' E 024°31'716.2
2017-Sep-12 16:00N 35°32' E 024°23'  

Dump ship's entire track history